createdAt,value
2019-05-21T00:00:51.715Z,0.00
2019-05-21T00:01:51.716Z,0.00
2019-05-21T00:02:51.697Z,0.00
2019-05-21T00:03:51.678Z,0.00
2019-05-21T00:04:51.668Z,0.00
2019-05-21T00:05:51.654Z,0.00
2019-05-21T00:06:51.685Z,0.00
2019-05-21T00:07:51.633Z,0.00
2019-05-21T00:08:51.644Z,0.00
2019-05-21T00:09:51.625Z,0.00
2019-05-21T00:10:51.599Z,0.00
2019-05-21T00:11:51.587Z,0.00
2019-05-21T00:12:51.585Z,0.00
2019-05-21T00:13:51.641Z,0.00
2019-05-21T00:14:51.588Z,0.00
2019-05-21T00:15:51.567Z,0.00
2019-05-21T00:16:51.548Z,0.00
2019-05-21T00:17:51.571Z,0.00
2019-05-21T00:18:51.550Z,0.00
2019-05-21T00:19:51.519Z,0.00
2019-05-21T00:20:51.505Z,0.00
2019-05-21T00:21:51.486Z,0.00
2019-05-21T00:22:51.462Z,0.00
2019-05-21T00:23:51.451Z,0.00
2019-05-21T00:24:51.571Z,0.00
2019-05-21T00:25:51.450Z,0.00
2019-05-21T00:26:51.421Z,0.00
2019-05-21T00:27:51.451Z,0.00
2019-05-21T00:28:51.412Z,0.00
2019-05-21T00:29:51.417Z,0.00
2019-05-21T00:30:51.373Z,0.00
2019-05-21T00:31:51.384Z,0.00
2019-05-21T00:32:51.351Z,0.00
2019-05-21T00:33:51.344Z,0.00
2019-05-21T00:34:51.391Z,0.00
2019-05-21T00:35:51.344Z,0.00
2019-05-21T00:36:51.323Z,0.00
2019-05-21T00:37:51.297Z,0.00
2019-05-21T00:38:52.068Z,0.00
2019-05-21T00:39:51.296Z,0.00
2019-05-21T00:40:51.281Z,0.00
2019-05-21T00:41:51.288Z,0.00
2019-05-21T00:42:51.240Z,0.00
2019-05-21T00:43:51.226Z,0.00
2019-05-21T00:44:51.215Z,0.00
2019-05-21T00:45:51.231Z,0.00
2019-05-21T00:46:51.222Z,0.00
2019-05-21T00:47:51.205Z,0.00
2019-05-21T00:48:51.193Z,0.00
2019-05-21T00:49:51.160Z,0.00
2019-05-21T00:50:51.168Z,0.00
2019-05-21T00:52:05.085Z,0.00
2019-05-21T00:52:52.152Z,0.00
2019-05-21T00:53:51.186Z,0.00
2019-05-21T00:54:51.129Z,0.00
2019-05-21T00:55:51.096Z,0.00
2019-05-21T00:56:51.167Z,0.00
2019-05-21T00:57:51.075Z,0.00
2019-05-21T00:58:51.301Z,0.00
2019-05-21T00:59:51.092Z,0.00
2019-05-21T01:00:51.036Z,0.00
2019-05-21T01:01:51.040Z,0.00
2019-05-21T01:02:51.025Z,0.00
2019-05-21T01:03:51.048Z,0.00
2019-05-21T01:05:00.355Z,0.00
2019-05-21T01:05:51.994Z,0.00
2019-05-21T01:06:50.971Z,0.00
2019-05-21T01:07:50.981Z,0.00
2019-05-21T01:08:50.944Z,0.00
2019-05-21T01:09:50.934Z,0.00
2019-05-21T01:10:50.957Z,0.00
2019-05-21T01:11:50.911Z,0.00
2019-05-21T01:12:50.924Z,0.00
2019-05-21T01:13:50.895Z,0.00
2019-05-21T01:14:50.878Z,0.00
2019-05-21T01:15:50.926Z,0.00
2019-05-21T01:16:51.038Z,0.00
2019-05-21T01:17:50.870Z,0.00
2019-05-21T01:18:50.834Z,0.00
2019-05-21T01:19:50.824Z,0.00
2019-05-21T01:20:50.813Z,0.00
2019-05-21T01:21:50.894Z,0.00
2019-05-21T01:22:50.790Z,0.00
2019-05-21T01:23:50.807Z,0.00
2019-05-21T01:24:50.787Z,0.00
2019-05-21T01:25:50.755Z,0.00
2019-05-21T01:26:50.769Z,0.00
2019-05-21T01:27:50.787Z,0.00
2019-05-21T01:28:50.755Z,0.00
2019-05-21T01:29:50.713Z,0.00
2019-05-21T01:30:50.712Z,0.00
2019-05-21T01:31:50.731Z,0.00
2019-05-21T01:32:50.685Z,0.00
2019-05-21T01:33:50.667Z,0.00
2019-05-21T01:34:50.655Z,0.00
2019-05-21T01:35:50.645Z,0.00
2019-05-21T01:36:50.874Z,0.00
2019-05-21T01:37:50.624Z,0.00
2019-05-21T01:38:50.615Z,0.00
2019-05-21T01:39:50.602Z,0.00
2019-05-21T01:40:50.631Z,0.00
2019-05-21T01:41:50.640Z,0.00
2019-05-21T01:42:50.566Z,0.00
2019-05-21T01:43:50.556Z,0.00
2019-05-21T01:44:50.552Z,0.00
2019-05-21T01:45:50.547Z,0.00
2019-05-21T01:46:50.521Z,0.00
2019-05-21T01:47:50.513Z,0.00
2019-05-21T01:48:50.520Z,0.00
2019-05-21T01:49:50.490Z,0.00
2019-05-21T01:50:50.484Z,0.00
2019-05-21T01:51:50.490Z,0.00
2019-05-21T01:52:50.453Z,0.00
2019-05-21T01:53:50.473Z,0.00
2019-05-21T01:54:50.429Z,0.00
2019-05-21T01:55:50.420Z,0.00
2019-05-21T01:56:50.412Z,0.00
2019-05-21T01:57:50.433Z,0.00
2019-05-21T01:58:50.384Z,0.00
2019-05-21T01:59:50.395Z,0.00
2019-05-21T02:00:50.371Z,0.00
2019-05-21T02:01:50.350Z,0.00
2019-05-21T02:02:50.364Z,0.00
2019-05-21T02:03:50.336Z,0.00
2019-05-21T02:04:50.374Z,0.00
2019-05-21T02:05:50.394Z,0.00
2019-05-21T02:06:50.295Z,0.00
2019-05-21T02:07:50.285Z,0.00
2019-05-21T02:08:50.291Z,0.00
2019-05-21T02:09:50.262Z,0.00
2019-05-21T02:10:50.250Z,0.00
2019-05-21T02:11:50.251Z,0.00
2019-05-21T02:12:50.250Z,0.00
2019-05-21T02:13:50.215Z,0.00
2019-05-21T02:14:50.222Z,0.00
2019-05-21T02:15:50.199Z,0.00
2019-05-21T02:16:50.184Z,0.00
2019-05-21T02:17:50.196Z,0.00
2019-05-21T02:18:50.163Z,0.00
2019-05-21T02:19:50.157Z,0.00
2019-05-21T02:20:50.159Z,0.00
2019-05-21T02:21:50.136Z,0.00
2019-05-21T02:22:50.130Z,0.00
2019-05-21T02:23:50.132Z,0.00
2019-05-21T02:24:50.103Z,0.00
2019-05-21T02:25:50.091Z,0.00
2019-05-21T02:26:50.070Z,0.00
2019-05-21T02:27:50.067Z,0.00
2019-05-21T02:28:50.069Z,0.00
2019-05-21T02:29:50.036Z,0.00
2019-05-21T02:30:50.051Z,0.00
2019-05-21T02:31:50.019Z,0.00
2019-05-21T02:32:50.003Z,0.00
2019-05-21T02:33:49.991Z,0.00
2019-05-21T02:34:50.001Z,0.00
2019-05-21T02:35:54.197Z,0.00
2019-05-21T02:36:50.955Z,0.00
2019-05-21T02:37:49.947Z,0.00
2019-05-21T02:38:49.938Z,0.00
2019-05-21T02:39:49.957Z,0.00
2019-05-21T02:40:49.931Z,0.00
2019-05-21T02:41:49.900Z,0.00
2019-05-21T02:42:49.896Z,0.00
2019-05-21T02:43:49.904Z,0.00
2019-05-21T02:44:53.667Z,0.00
2019-05-21T02:45:49.858Z,0.00
2019-05-21T02:46:49.903Z,0.00
2019-05-21T02:47:49.835Z,0.00
2019-05-21T02:48:49.862Z,0.00
2019-05-21T02:49:49.815Z,0.00
2019-05-21T02:50:49.831Z,0.00
2019-05-21T02:51:49.798Z,0.00
2019-05-21T02:52:49.777Z,0.00
2019-05-21T02:53:49.766Z,0.00
2019-05-21T02:54:49.760Z,0.00
2019-05-21T02:55:49.784Z,0.00
2019-05-21T02:56:49.734Z,0.00
2019-05-21T02:57:49.744Z,0.00
2019-05-21T02:58:49.721Z,0.00
2019-05-21T02:59:49.706Z,0.00
2019-05-21T03:00:49.720Z,0.00
2019-05-21T03:01:49.682Z,0.00
2019-05-21T03:02:49.695Z,0.00
2019-05-21T03:03:49.660Z,0.00
2019-05-21T03:04:49.644Z,0.00
2019-05-21T03:05:49.662Z,0.00
2019-05-21T03:06:49.632Z,0.00
2019-05-21T03:07:49.620Z,0.00
2019-05-21T03:08:49.646Z,0.00
2019-05-21T03:09:49.603Z,0.00
2019-05-21T03:10:49.590Z,0.00
2019-05-21T03:11:49.564Z,0.00
2019-05-21T03:12:49.570Z,0.00
2019-05-21T03:13:49.577Z,0.00
2019-05-21T03:14:49.551Z,0.00
2019-05-21T03:15:49.537Z,0.00
2019-05-21T03:16:49.507Z,0.00
2019-05-21T03:17:49.522Z,0.00
2019-05-21T03:18:49.526Z,0.00
2019-05-21T03:19:49.473Z,0.00
2019-05-21T03:20:49.543Z,0.00
2019-05-21T03:21:49.451Z,0.00
2019-05-21T03:22:49.442Z,0.00
2019-05-21T03:23:49.430Z,0.00
2019-05-21T03:24:49.415Z,0.00
2019-05-21T03:25:49.433Z,0.00
2019-05-21T03:26:49.406Z,0.00
2019-05-21T03:27:49.387Z,0.00
2019-05-21T03:28:49.372Z,0.00
2019-05-21T03:29:49.360Z,0.00
2019-05-21T03:30:49.375Z,0.00
2019-05-21T03:31:49.374Z,0.00
2019-05-21T03:32:49.338Z,0.00
2019-05-21T03:33:49.385Z,0.00
2019-05-21T03:34:49.308Z,0.00
2019-05-21T03:35:49.325Z,0.00
2019-05-21T03:36:49.290Z,0.00
2019-05-21T03:37:49.309Z,0.00
2019-05-21T03:38:49.261Z,0.00
2019-05-21T03:39:49.347Z,0.00
2019-05-21T03:40:49.259Z,0.00
2019-05-21T03:41:49.226Z,0.00
2019-05-21T03:42:49.238Z,0.00
2019-05-21T03:43:49.205Z,0.00
2019-05-21T03:44:59.872Z,0.00
2019-05-21T03:45:50.180Z,0.00
2019-05-21T03:46:49.172Z,0.00
2019-05-21T03:47:49.208Z,0.00
2019-05-21T03:48:49.148Z,0.00
2019-05-21T03:49:49.141Z,0.00
2019-05-21T03:50:49.132Z,0.00
2019-05-21T03:51:49.114Z,0.00
2019-05-21T03:52:49.134Z,0.00
2019-05-21T03:53:49.171Z,0.00
2019-05-21T03:54:49.107Z,0.00
2019-05-21T03:55:49.094Z,0.00
2019-05-21T03:56:49.064Z,0.00
2019-05-21T03:57:49.047Z,0.00
2019-05-21T03:58:49.082Z,0.00
2019-05-21T03:59:49.024Z,0.00
2019-05-21T04:00:49.019Z,0.00
2019-05-21T04:01:49.002Z,0.00
2019-05-21T04:02:48.991Z,0.00
2019-05-21T04:03:49.006Z,0.00
2019-05-21T04:04:48.971Z,0.00
2019-05-21T04:05:48.973Z,0.00
2019-05-21T04:06:52.361Z,0.00
2019-05-21T04:07:48.974Z,0.00
2019-05-21T04:08:48.949Z,0.00
2019-05-21T04:09:48.917Z,5.62
2019-05-21T04:10:48.906Z,5.62
2019-05-21T04:11:52.870Z,0.00
2019-05-21T04:12:48.877Z,0.00
2019-05-21T04:13:48.884Z,0.00
2019-05-21T04:14:48.854Z,0.00
2019-05-21T04:15:48.882Z,0.00
2019-05-21T04:16:48.836Z,0.00
2019-05-21T04:17:48.825Z,0.00
2019-05-21T04:18:48.832Z,0.00
2019-05-21T04:19:48.816Z,0.00
2019-05-21T04:20:48.791Z,0.00
2019-05-21T04:21:48.808Z,0.00
2019-05-21T04:22:48.806Z,0.00
2019-05-21T04:23:48.768Z,0.00
2019-05-21T04:24:48.762Z,0.00
2019-05-21T04:25:48.730Z,5.62
2019-05-21T04:26:48.738Z,5.62
2019-05-21T04:27:48.712Z,5.62
2019-05-21T04:28:48.708Z,5.62
2019-05-21T04:29:48.686Z,5.62
2019-05-21T04:30:48.682Z,5.62
2019-05-21T04:31:48.685Z,5.62
2019-05-21T04:32:48.683Z,11.25
2019-05-21T04:33:48.653Z,11.25
2019-05-21T04:34:48.631Z,11.25
2019-05-21T04:35:48.655Z,11.25
2019-05-21T04:36:48.637Z,5.62
2019-05-21T04:37:48.623Z,5.62
2019-05-21T04:38:48.585Z,11.25
2019-05-21T04:39:48.625Z,11.25
2019-05-21T04:40:48.579Z,5.62
2019-05-21T04:41:48.557Z,5.62
2019-05-21T04:42:48.574Z,11.25
2019-05-21T04:43:48.534Z,16.88
2019-05-21T04:44:48.522Z,16.88
2019-05-21T04:45:48.557Z,11.25
2019-05-21T04:46:48.498Z,5.62
2019-05-21T04:47:48.489Z,5.62
2019-05-21T04:48:48.477Z,5.62
2019-05-21T04:49:48.494Z,5.62
2019-05-21T04:50:48.448Z,5.62
2019-05-21T04:51:48.442Z,5.62
2019-05-21T04:52:48.431Z,5.62
2019-05-21T04:53:48.426Z,11.25
2019-05-21T04:54:48.427Z,11.25
2019-05-21T04:55:48.400Z,11.25
2019-05-21T04:56:48.383Z,5.62
2019-05-21T04:57:48.411Z,5.62
2019-05-21T04:58:48.368Z,5.62
2019-05-21T04:59:48.347Z,5.62
2019-05-21T05:00:48.352Z,5.62
2019-05-21T05:01:48.356Z,11.25
2019-05-21T05:02:48.315Z,5.62
2019-05-21T05:03:48.377Z,11.25
2019-05-21T05:04:48.293Z,5.62
2019-05-21T05:05:48.302Z,5.62
2019-05-21T05:06:48.300Z,5.62
2019-05-21T05:07:48.274Z,5.62
2019-05-21T05:08:48.263Z,5.62
2019-05-21T05:09:48.243Z,0.00
2019-05-21T05:10:49.360Z,0.00
2019-05-21T05:11:48.212Z,0.00
2019-05-21T05:12:48.206Z,0.00
2019-05-21T05:13:48.222Z,0.00
2019-05-21T05:14:48.177Z,0.00
2019-05-21T05:15:48.168Z,0.00
2019-05-21T05:16:48.182Z,5.62
2019-05-21T05:17:48.146Z,5.62
2019-05-21T05:18:48.158Z,5.62
2019-05-21T05:19:48.126Z,5.62
2019-05-21T05:20:48.111Z,5.62
2019-05-21T05:21:48.114Z,5.62
2019-05-21T05:22:48.113Z,5.62
2019-05-21T05:23:48.079Z,5.62
2019-05-21T05:24:48.480Z,5.62
2019-05-21T05:25:48.056Z,5.62
2019-05-21T05:26:48.045Z,5.62
2019-05-21T05:27:48.104Z,5.62
2019-05-21T05:28:48.027Z,5.62
2019-05-21T05:29:48.010Z,5.62
2019-05-21T05:30:47.999Z,5.62
2019-05-21T05:31:47.995Z,5.62
2019-05-21T05:32:47.997Z,5.62
2019-05-21T05:33:47.967Z,11.25
2019-05-21T05:34:47.953Z,11.25
2019-05-21T05:35:47.974Z,11.25
2019-05-21T05:36:47.958Z,11.25
2019-05-21T05:37:49.029Z,11.25
2019-05-21T05:38:47.908Z,16.88
2019-05-21T05:39:47.953Z,11.25
2019-05-21T05:40:47.912Z,11.25
2019-05-21T05:41:47.874Z,11.25
2019-05-21T05:42:47.864Z,11.25
2019-05-21T05:43:47.878Z,11.25
2019-05-21T05:44:47.863Z,11.25
2019-05-21T05:45:47.853Z,11.25
2019-05-21T05:46:47.818Z,16.88
2019-05-21T05:47:47.810Z,16.88
2019-05-21T05:48:47.796Z,16.88
2019-05-21T05:49:47.796Z,16.88
2019-05-21T05:50:47.796Z,11.25
2019-05-21T05:51:47.763Z,11.25
2019-05-21T05:52:47.751Z,11.25
2019-05-21T05:53:47.740Z,11.25
2019-05-21T05:54:47.764Z,11.25
2019-05-21T05:55:47.760Z,11.25
2019-05-21T05:56:47.713Z,11.25
2019-05-21T05:57:47.694Z,11.25
2019-05-21T05:58:47.709Z,11.25
2019-05-21T05:59:47.680Z,11.25
2019-05-21T06:00:47.669Z,11.25
2019-05-21T06:01:47.688Z,11.25
2019-05-21T06:02:47.639Z,11.25
2019-05-21T06:03:47.652Z,11.25
2019-05-21T06:04:47.621Z,16.88
2019-05-21T06:05:47.637Z,22.50
2019-05-21T06:06:47.596Z,22.50
2019-05-21T06:07:59.338Z,16.88
2019-05-21T06:08:48.571Z,16.88
2019-05-21T06:09:47.589Z,16.88
2019-05-21T06:10:47.552Z,16.88
2019-05-21T06:11:47.551Z,11.25
2019-05-21T06:12:47.532Z,16.88
2019-05-21T06:13:47.535Z,16.88
2019-05-21T06:14:47.541Z,16.88
2019-05-21T06:15:47.493Z,22.50
2019-05-21T06:16:47.518Z,28.12
2019-05-21T06:17:47.476Z,39.38
2019-05-21T06:18:47.481Z,33.75
2019-05-21T06:19:47.476Z,33.75
2019-05-21T06:20:47.442Z,33.75
2019-05-21T06:21:47.428Z,33.75
2019-05-21T06:22:47.422Z,39.38
2019-05-21T06:23:47.459Z,39.38
2019-05-21T06:24:47.393Z,50.62
2019-05-21T06:25:47.407Z,56.25
2019-05-21T06:26:47.367Z,39.38
2019-05-21T06:27:47.355Z,39.38
2019-05-21T06:28:47.345Z,33.75
2019-05-21T06:29:47.338Z,33.75
2019-05-21T06:30:47.399Z,33.75
2019-05-21T06:31:47.962Z,33.75
2019-05-21T06:32:47.300Z,33.75
2019-05-21T06:33:47.287Z,33.75
2019-05-21T06:34:48.807Z,28.12
2019-05-21T06:35:47.289Z,28.12
2019-05-21T06:36:47.260Z,28.12
2019-05-21T06:37:47.245Z,33.75
2019-05-21T06:38:47.266Z,28.12
2019-05-21T06:39:47.221Z,28.12
2019-05-21T06:40:47.232Z,28.12
2019-05-21T06:41:47.200Z,22.50
2019-05-21T06:42:47.217Z,22.50
2019-05-21T06:43:47.199Z,22.50
2019-05-21T06:44:47.164Z,22.50
2019-05-21T06:45:47.167Z,22.50
2019-05-21T06:46:47.141Z,22.50
2019-05-21T06:47:47.129Z,22.50
2019-05-21T06:48:47.124Z,28.12
2019-05-21T06:49:47.164Z,33.75
2019-05-21T06:50:47.101Z,56.25
2019-05-21T06:51:47.130Z,73.12
2019-05-21T06:52:47.081Z,84.38
2019-05-21T06:53:47.081Z,95.62
2019-05-21T06:54:47.053Z,90.00
2019-05-21T06:55:47.042Z,90.00
2019-05-21T06:56:47.073Z,90.00
2019-05-21T06:57:47.017Z,78.75
2019-05-21T06:58:47.007Z,95.62
2019-05-21T06:59:47.059Z,106.88
2019-05-21T07:00:46.990Z,112.50
2019-05-21T07:01:46.996Z,95.62
2019-05-21T07:02:46.969Z,90.00
2019-05-21T07:03:46.951Z,84.38
2019-05-21T07:04:46.952Z,78.75
2019-05-21T07:05:58.422Z,73.12
2019-05-21T07:06:47.918Z,78.75
2019-05-21T07:07:46.923Z,84.38
2019-05-21T07:08:46.915Z,73.12
2019-05-21T07:09:46.907Z,73.12
2019-05-21T07:10:46.921Z,78.75
2019-05-21T07:11:46.865Z,73.12
2019-05-21T07:12:46.864Z,73.12
2019-05-21T07:13:46.871Z,56.25
2019-05-21T07:14:46.870Z,45.00
2019-05-21T07:15:46.872Z,39.38
2019-05-21T07:16:46.805Z,39.38
2019-05-21T07:17:46.793Z,45.00
2019-05-21T07:18:46.812Z,56.25
2019-05-21T07:19:46.798Z,50.62
2019-05-21T07:20:46.784Z,56.25
2019-05-21T07:21:46.821Z,56.25
2019-05-21T07:22:46.855Z,56.25
2019-05-21T07:23:46.726Z,56.25
2019-05-21T07:24:46.736Z,50.62
2019-05-21T07:25:46.707Z,45.00
2019-05-21T07:26:46.697Z,45.00
2019-05-21T07:27:46.688Z,45.00
2019-05-21T07:28:46.704Z,56.25
2019-05-21T07:29:46.682Z,61.88
2019-05-21T07:30:46.692Z,50.62
2019-05-21T07:31:46.639Z,45.00
2019-05-21T07:32:46.689Z,39.38
2019-05-21T07:33:46.639Z,39.38
2019-05-21T07:34:46.605Z,45.00
2019-05-21T07:35:46.622Z,39.38
2019-05-21T07:36:46.582Z,33.75
2019-05-21T07:37:46.568Z,39.38
2019-05-21T07:38:53.419Z,39.38
2019-05-21T07:39:47.615Z,39.38
2019-05-21T07:40:46.538Z,45.00
2019-05-21T07:41:46.532Z,39.38
2019-05-21T07:42:46.544Z,33.75
2019-05-21T07:43:46.501Z,33.75
2019-05-21T07:44:46.494Z,33.75
2019-05-21T07:45:46.477Z,33.75
2019-05-21T07:46:46.469Z,33.75
2019-05-21T07:47:46.479Z,33.75
2019-05-21T07:48:46.463Z,33.75
2019-05-21T07:49:46.436Z,39.38
2019-05-21T07:50:46.424Z,33.75
2019-05-21T07:51:46.461Z,45.00
2019-05-21T07:52:46.408Z,50.62
2019-05-21T07:53:46.389Z,61.88
2019-05-21T07:54:46.402Z,61.88
2019-05-21T07:55:46.369Z,61.88
2019-05-21T07:56:46.356Z,67.50
2019-05-21T07:57:46.387Z,73.12
2019-05-21T07:58:46.339Z,78.75
2019-05-21T07:59:46.332Z,73.12
2019-05-21T08:00:46.312Z,61.88
2019-05-21T08:01:46.299Z,45.00
2019-05-21T08:02:46.307Z,39.38
2019-05-21T08:03:46.299Z,39.38
2019-05-21T08:04:46.282Z,39.38
2019-05-21T08:05:46.255Z,39.38
2019-05-21T08:06:46.290Z,39.38
2019-05-21T08:07:46.275Z,33.75
2019-05-21T08:08:46.225Z,28.12
2019-05-21T08:09:46.215Z,28.12
2019-05-21T08:10:46.208Z,28.12
2019-05-21T08:11:47.196Z,33.75
2019-05-21T08:12:46.201Z,39.38
2019-05-21T08:13:46.173Z,39.38
2019-05-21T08:14:46.190Z,45.00
2019-05-21T08:15:46.144Z,50.62
2019-05-21T08:16:46.157Z,56.25
2019-05-21T08:17:46.134Z,56.25
2019-05-21T08:18:46.110Z,50.62
2019-05-21T08:19:46.125Z,61.88
2019-05-21T08:20:46.108Z,67.50
2019-05-21T08:21:46.075Z,67.50
2019-05-21T08:22:46.065Z,84.38
2019-05-21T08:23:46.076Z,90.00
2019-05-21T08:24:46.040Z,78.75
2019-05-21T08:25:46.030Z,67.50
2019-05-21T08:26:46.019Z,56.25
2019-05-21T08:27:46.058Z,50.62
2019-05-21T08:28:46.034Z,39.38
2019-05-21T08:29:46.006Z,39.38
2019-05-21T08:30:45.973Z,45.00
2019-05-21T08:31:45.959Z,45.00
2019-05-21T08:32:45.986Z,45.00
2019-05-21T08:33:45.939Z,45.00
2019-05-21T08:34:45.951Z,45.00
2019-05-21T08:35:45.923Z,45.00
2019-05-21T08:36:45.910Z,50.62
2019-05-21T08:37:45.900Z,56.25
2019-05-21T08:38:45.906Z,50.62
2019-05-21T08:39:45.872Z,50.62
2019-05-21T08:40:45.860Z,45.00
2019-05-21T08:41:45.874Z,45.00
2019-05-21T08:42:45.863Z,50.62
2019-05-21T08:43:45.826Z,56.25
2019-05-21T08:44:45.820Z,61.88
2019-05-21T08:45:45.802Z,50.62
2019-05-21T08:46:45.812Z,45.00
2019-05-21T08:47:45.808Z,45.00
2019-05-21T08:48:45.769Z,45.00
2019-05-21T08:49:45.772Z,39.38
2019-05-21T08:50:45.754Z,39.38
2019-05-21T08:51:45.739Z,39.38
2019-05-21T08:52:45.724Z,39.38
2019-05-21T08:53:45.729Z,39.38
2019-05-21T08:54:45.727Z,33.75
2019-05-21T08:55:45.712Z,33.75
2019-05-21T08:56:45.679Z,28.12
2019-05-21T08:57:45.672Z,28.12
2019-05-21T08:58:45.657Z,33.75
2019-05-21T08:59:45.676Z,33.75
2019-05-21T09:00:45.654Z,33.75
2019-05-21T09:01:45.649Z,45.00
2019-05-21T09:02:45.637Z,50.62
2019-05-21T09:03:45.607Z,56.25
2019-05-21T09:04:46.745Z,67.50
2019-05-21T09:05:45.601Z,61.88
2019-05-21T09:06:45.594Z,61.88
2019-05-21T09:07:45.580Z,56.25
2019-05-21T09:08:45.570Z,50.62
2019-05-21T09:09:51.315Z,56.25
2019-05-21T09:10:46.521Z,50.62
2019-05-21T09:11:45.531Z,61.88
2019-05-21T09:12:45.530Z,56.25
2019-05-21T09:13:45.511Z,56.25
2019-05-21T09:14:45.476Z,56.25
2019-05-21T09:15:45.517Z,67.50
2019-05-21T09:16:45.454Z,78.75
2019-05-21T09:17:45.466Z,84.38
2019-05-21T09:18:45.446Z,84.38
2019-05-21T09:19:45.422Z,95.62
2019-05-21T09:20:45.431Z,95.62
2019-05-21T09:21:45.397Z,95.62
2019-05-21T09:22:45.390Z,95.62
2019-05-21T09:23:45.396Z,95.62
2019-05-21T09:24:45.391Z,90.00
2019-05-21T09:25:45.354Z,90.00
2019-05-21T09:26:45.341Z,101.25
2019-05-21T09:27:45.357Z,112.50
2019-05-21T09:28:45.319Z,106.88
2019-05-21T09:29:45.309Z,90.00
2019-05-21T09:30:45.361Z,95.62
2019-05-21T09:31:45.289Z,106.88
2019-05-21T09:32:45.293Z,106.88
2019-05-21T09:33:45.267Z,112.50
2019-05-21T09:34:49.060Z,129.38
2019-05-21T09:35:45.241Z,112.50
2019-05-21T09:36:45.230Z,101.25
2019-05-21T09:37:45.246Z,95.62
2019-05-21T09:38:45.211Z,90.00
2019-05-21T09:39:45.263Z,84.38
2019-05-21T09:40:45.185Z,84.38
2019-05-21T09:41:45.175Z,78.75
2019-05-21T09:42:45.735Z,73.12
2019-05-21T09:43:45.149Z,61.88
2019-05-21T09:44:45.141Z,61.88
2019-05-21T09:45:45.169Z,73.12
2019-05-21T09:46:45.117Z,78.75
2019-05-21T09:47:45.116Z,84.38
2019-05-21T09:48:45.093Z,95.62
2019-05-21T09:49:45.106Z,84.38
2019-05-21T09:50:45.078Z,90.00
2019-05-21T09:51:45.060Z,95.62
2019-05-21T09:52:45.073Z,101.25
2019-05-21T09:53:45.050Z,101.25
2019-05-21T09:54:45.026Z,90.00
2019-05-21T09:55:45.059Z,90.00
2019-05-21T09:56:45.033Z,95.62
2019-05-21T09:57:44.996Z,90.00
2019-05-21T09:58:44.981Z,112.50
2019-05-21T09:59:44.974Z,123.75
2019-05-21T10:00:44.994Z,123.75
2019-05-21T10:01:47.966Z,118.12
2019-05-21T10:02:44.939Z,112.50
2019-05-21T10:03:45.060Z,112.50
2019-05-21T10:04:44.943Z,112.50
2019-05-21T10:05:44.927Z,95.62
2019-05-21T10:06:44.894Z,84.38
2019-05-21T10:07:44.909Z,78.75
2019-05-21T10:08:44.868Z,78.75
2019-05-21T10:09:44.880Z,73.12
2019-05-21T10:10:44.873Z,73.12
2019-05-21T10:11:44.835Z,73.12
2019-05-21T10:12:44.825Z,73.12
2019-05-21T10:13:44.813Z,78.75
2019-05-21T10:14:44.810Z,90.00
2019-05-21T10:15:44.834Z,95.62
2019-05-21T10:16:44.782Z,95.62
2019-05-21T10:17:44.803Z,118.12
2019-05-21T10:18:44.760Z,106.88
2019-05-21T10:19:44.743Z,90.00
2019-05-21T10:20:44.737Z,90.00
2019-05-21T10:21:44.735Z,84.38
2019-05-21T10:22:44.737Z,78.75
2019-05-21T10:23:44.704Z,73.12
2019-05-21T10:24:44.691Z,73.12
2019-05-21T10:25:44.681Z,73.12
2019-05-21T10:26:44.670Z,67.50
2019-05-21T10:27:44.683Z,78.75
2019-05-21T10:28:44.651Z,78.75
2019-05-21T10:29:44.638Z,78.75
2019-05-21T10:30:44.624Z,73.12
2019-05-21T10:31:44.631Z,67.50
2019-05-21T10:32:44.632Z,56.25
2019-05-21T10:33:44.589Z,50.62
2019-05-21T10:34:44.584Z,50.62
2019-05-21T10:35:44.565Z,50.62
2019-05-21T10:36:44.560Z,61.88
2019-05-21T10:37:54.672Z,73.12
2019-05-21T10:38:45.560Z,78.75
2019-05-21T10:39:44.523Z,84.38
2019-05-21T10:40:44.520Z,78.75
2019-05-21T10:41:46.119Z,78.75
2019-05-21T10:42:44.485Z,84.38
2019-05-21T10:43:44.487Z,90.00
2019-05-21T10:44:44.490Z,90.00
2019-05-21T10:45:44.452Z,73.12
2019-05-21T10:46:44.443Z,73.12
2019-05-21T10:47:44.479Z,78.75
2019-05-21T10:48:44.420Z,78.75
2019-05-21T10:49:44.434Z,67.50
2019-05-21T10:50:44.423Z,61.88
2019-05-21T10:51:44.387Z,61.88
2019-05-21T10:52:44.379Z,61.88
2019-05-21T10:53:44.371Z,61.88
2019-05-21T10:54:44.373Z,56.25
2019-05-21T10:55:44.362Z,61.88
2019-05-21T10:56:47.747Z,67.50
2019-05-21T10:57:44.367Z,61.88
2019-05-21T10:58:44.304Z,61.88
2019-05-21T10:59:44.301Z,50.62
2019-05-21T11:00:44.312Z,50.62
2019-05-21T11:01:44.278Z,50.62
2019-05-21T11:02:44.291Z,50.62
2019-05-21T11:03:44.254Z,50.62
2019-05-21T11:04:44.437Z,56.25
2019-05-21T11:05:44.264Z,56.25
2019-05-21T11:06:44.223Z,56.25
2019-05-21T11:07:44.204Z,61.88
2019-05-21T11:08:44.210Z,56.25
2019-05-21T11:09:44.189Z,56.25
2019-05-21T11:10:44.178Z,56.25
2019-05-21T11:11:44.189Z,56.25
2019-05-21T11:12:44.161Z,56.25
2019-05-21T11:13:44.149Z,56.25
2019-05-21T11:14:44.139Z,56.25
2019-05-21T11:15:44.148Z,56.25
2019-05-21T11:16:44.115Z,56.25
2019-05-21T11:17:59.021Z,56.25
2019-05-21T11:18:45.078Z,50.62
2019-05-21T11:19:44.077Z,50.62
2019-05-21T11:20:44.060Z,50.62
2019-05-21T11:21:44.046Z,50.62
2019-05-21T11:22:44.085Z,61.88
2019-05-21T11:23:44.058Z,61.88
2019-05-21T11:24:44.021Z,56.25
2019-05-21T11:25:44.076Z,56.25
2019-05-21T11:26:43.990Z,50.62
2019-05-21T11:27:44.013Z,50.62
2019-05-21T11:28:43.972Z,45.00
2019-05-21T11:29:43.966Z,45.00
2019-05-21T11:30:43.980Z,50.62
2019-05-21T11:31:56.503Z,50.62
2019-05-21T11:32:47.835Z,50.62
2019-05-21T11:33:43.940Z,56.25
2019-05-21T11:34:43.907Z,56.25
2019-05-21T11:35:43.894Z,50.62
2019-05-21T11:36:43.897Z,50.62
2019-05-21T11:37:47.630Z,50.62
2019-05-21T11:38:43.880Z,45.00
2019-05-21T11:39:43.853Z,45.00
2019-05-21T11:40:43.877Z,50.62
2019-05-21T11:41:43.824Z,50.62
2019-05-21T11:42:43.895Z,50.62
2019-05-21T11:43:43.799Z,50.62
2019-05-21T11:44:43.791Z,50.62
2019-05-21T11:45:43.779Z,45.00
2019-05-21T11:46:43.765Z,45.00
2019-05-21T11:47:43.821Z,45.00
2019-05-21T11:48:43.764Z,45.00
2019-05-21T11:49:43.736Z,45.00
2019-05-21T11:50:43.730Z,45.00
2019-05-21T11:51:43.725Z,39.38
2019-05-21T11:52:43.701Z,45.00
2019-05-21T11:53:43.709Z,45.00
2019-05-21T11:54:43.677Z,45.00
2019-05-21T11:55:43.675Z,45.00
2019-05-21T11:56:43.652Z,45.00
2019-05-21T11:57:43.668Z,50.62
2019-05-21T11:58:43.645Z,50.62
2019-05-21T11:59:43.627Z,50.62
2019-05-21T12:00:43.632Z,45.00
2019-05-21T12:01:43.600Z,50.62
2019-05-21T12:02:43.589Z,45.00
2019-05-21T12:03:43.587Z,45.00
2019-05-21T12:04:43.571Z,50.62
2019-05-21T12:05:43.580Z,45.00
2019-05-21T12:06:43.566Z,50.62
2019-05-21T12:07:43.532Z,56.25
2019-05-21T12:08:56.111Z,50.62
2019-05-21T12:09:44.506Z,50.62
2019-05-21T12:10:43.502Z,45.00
2019-05-21T12:11:43.486Z,45.00
2019-05-21T12:12:43.475Z,50.62
2019-05-21T12:13:43.485Z,56.25
2019-05-21T12:14:43.456Z,61.88
2019-05-21T12:15:43.449Z,61.88
2019-05-21T12:16:43.430Z,67.50
2019-05-21T12:17:43.432Z,73.12
2019-05-21T12:18:43.435Z,78.75
2019-05-21T12:19:43.397Z,84.38
2019-05-21T12:20:43.383Z,78.75
2019-05-21T12:21:43.398Z,84.38
2019-05-21T12:22:43.364Z,78.75
2019-05-21T12:23:43.365Z,78.75
2019-05-21T12:24:43.338Z,73.12
2019-05-21T12:25:43.334Z,73.12
2019-05-21T12:26:43.382Z,78.75
2019-05-21T12:27:43.306Z,78.75
2019-05-21T12:28:43.295Z,78.75
2019-05-21T12:29:43.284Z,73.12
2019-05-21T12:30:43.279Z,67.50
2019-05-21T12:31:43.292Z,67.50
2019-05-21T12:32:43.251Z,61.88
2019-05-21T12:33:43.266Z,61.88
2019-05-21T12:34:43.236Z,61.88
2019-05-21T12:35:43.217Z,56.25
2019-05-21T12:36:43.235Z,56.25
2019-05-21T12:37:43.196Z,50.62
2019-05-21T12:38:43.206Z,50.62
2019-05-21T12:39:43.188Z,56.25
2019-05-21T12:40:45.816Z,56.25
2019-05-21T12:41:43.156Z,61.88
2019-05-21T12:42:43.137Z,73.12
2019-05-21T12:43:43.134Z,61.88
2019-05-21T12:44:43.129Z,67.50
2019-05-21T12:45:43.106Z,61.88
2019-05-21T12:46:43.126Z,67.50
2019-05-21T12:47:43.082Z,61.88
2019-05-21T12:48:43.094Z,61.88
2019-05-21T12:49:43.067Z,56.25
2019-05-21T12:50:43.049Z,56.25
2019-05-21T12:51:43.034Z,61.88
2019-05-21T12:52:43.034Z,56.25
2019-05-21T12:53:43.040Z,61.88
2019-05-21T12:54:43.008Z,67.50
2019-05-21T12:55:42.991Z,67.50
2019-05-21T12:56:42.982Z,61.88
2019-05-21T12:57:42.973Z,61.88
2019-05-21T12:58:42.984Z,61.88
2019-05-21T12:59:42.979Z,56.25
2019-05-21T13:00:42.935Z,50.62
2019-05-21T13:01:42.927Z,50.62
2019-05-21T13:02:42.912Z,45.00